< Typhoon 199919 1999 Season Typhoon 199921 >
Typhoon 199920 (DAN)
General InformationTrack Information on Google MapsDetailed Wind InformationList of All Images || Disaster Info.ResourceGoogle EarthGE AnimationAtom FeedGeoJSON
Detalied Best Track (Time Zone = UTC)
Year Month Day Hour Lat. Long. Pressure (hPa) Wind (kt) Class Image Chart
1999 10 2 12 17.1 132.2 1008 0 2 Image Chart
1999 10 2 18 17.6 131.0 1008 0 2 Image Chart
1999 10 3 00 17.9 130.0 1006 0 2 Image Chart
1999 10 3 06 18.1 129.4 1004 0 2 Image Chart
1999 10 3 12 18.4 128.6 998 35 3 Image Chart
1999 10 3 18 18.4 127.8 990 45 3 Image Chart
1999 10 4 00 18.2 126.6 985 50 4 Image Chart
1999 10 4 06 18.2 125.5 975 60 4 Image Chart
1999 10 4 12 18.2 124.4 965 65 5 Image Chart
1999 10 4 18 18.1 123.5 965 65 5 Image Chart
1999 10 5 00 18.2 122.4 965 65 5 Image Chart
1999 10 5 06 18.4 121.2 975 60 4 Image Chart
1999 10 5 12 18.5 120.1 970 65 5 Image Chart
1999 10 5 18 18.4 119.4 970 65 5 Image Chart
1999 10 6 00 18.6 118.8 970 65 5 Image Chart
1999 10 6 06 18.9 118.3 970 65 5 Image Chart
1999 10 6 12 19.0 117.9 970 65 5 Image Chart
1999 10 6 18 19.4 117.7 965 70 5 Image Chart
1999 10 7 00 19.8 117.9 960 75 5 Image Chart
1999 10 7 06 20.3 118.0 960 75 5 Image Chart
1999 10 7 12 20.7 118.2 955 80 5 Image Chart
1999 10 7 18 21.2 118.3 955 75 5 Image Chart
1999 10 8 00 21.8 118.2 960 75 5 Image Chart
1999 10 8 06 22.2 117.8 960 75 5 Image Chart
1999 10 8 12 22.5 118.1 960 75 5 Image Chart
1999 10 8 18 23.3 118.2 965 70 5 Image Chart
1999 10 9 00 24.0 118.1 975 60 4 Image Chart
1999 10 9 06 24.7 117.8 985 50 4 Image Chart
1999 10 9 12 25.6 118.1 998 35 3 Image Chart
1999 10 9 18 26.2 118.5 1006 0 2 Image Chart
1999 10 10 00 27.4 119.3 1010 0 2 Image Chart
1999 10 10 06 28.7 120.4 1010 0 2 Image Chart
1999 10 10 12 30.1 121.8 1012 0 2 Image Chart
1999 10 10 18 31.1 122.6 1012 0 6 Image Chart
1999 10 11 00 31.9 124.9 1012 0 6 Image Chart
1999 10 11 06 32.6 126.6 1012 0 6 Image Chart
1999 10 11 12 33.0 127.7 1012 0 6 Image Chart
1999 10 11 18 32.7 128.1 1014 0 6 Image Chart
1999 10 12 00 32.2 128.5 1016 0 6 Image Chart
Japan Meteorological Agency Best Track Data | Correction Date : 2005-03-01
< Typhoon 199919 1999 Season Typhoon 199921 >

Help